createdAt,value
2019-02-28T00:05:57.248Z,4.25
2019-02-28T00:08:23.832Z,3.17
2019-02-28T00:14:18.732Z,3.17
2019-02-28T00:16:45.307Z,3.15
2019-02-28T00:19:11.917Z,3.17
2019-02-28T00:22:18.831Z,3.95
2019-02-28T00:27:27.367Z,2.22
2019-02-28T00:29:54.103Z,2.00
2019-02-28T00:32:21.441Z,2.22
2019-02-28T00:34:49.128Z,2.98
2019-02-28T00:37:15.928Z,2.55
2019-02-28T00:39:42.711Z,3.10
2019-02-28T00:42:09.456Z,2.62
2019-02-28T00:44:36.185Z,2.50
2019-02-28T00:47:03.348Z,3.10
2019-02-28T00:49:30.180Z,3.47
2019-02-28T00:51:57.022Z,2.50
2019-02-28T00:54:23.523Z,2.70
2019-02-28T00:56:52.500Z,2.65
2019-02-28T00:59:18.897Z,2.55
2019-02-28T01:01:46.058Z,3.75
2019-02-28T01:04:13.334Z,2.58
2019-02-28T01:06:41.738Z,1.42
2019-02-28T01:09:08.924Z,2.00
2019-02-28T01:11:35.487Z,2.90
2019-02-28T01:14:02.719Z,2.72
2019-02-28T01:16:29.318Z,2.45
2019-02-28T01:18:56.098Z,2.30
2019-02-28T01:21:23.923Z,3.25
2019-02-28T01:23:51.017Z,3.52
2019-02-28T01:26:17.671Z,2.62
2019-02-28T01:28:44.499Z,2.80
2019-02-28T01:31:12.236Z,3.30
2019-02-28T01:33:38.785Z,2.52
2019-02-28T01:36:05.538Z,2.50
2019-02-28T01:38:32.274Z,2.67
2019-02-28T01:40:58.727Z,2.60
2019-02-28T01:43:28.306Z,3.27
2019-02-28T01:45:53.934Z,2.42
2019-02-28T01:48:22.667Z,3.70
2019-02-28T01:50:48.851Z,2.85
2019-02-28T01:53:18.753Z,3.25
2019-02-28T01:55:44.092Z,2.80
2019-02-28T01:58:10.715Z,2.65
2019-02-28T02:00:37.450Z,2.08
2019-02-28T02:03:03.885Z,2.60
2019-02-28T02:05:30.443Z,3.33
2019-02-28T02:07:57.481Z,2.95
2019-02-28T02:10:24.433Z,2.37
2019-02-28T02:12:50.933Z,2.22
2019-02-28T02:15:17.925Z,4.55
2019-02-28T02:17:44.952Z,2.87
2019-02-28T02:20:13.346Z,2.67
2019-02-28T02:22:40.659Z,3.12
2019-02-28T02:25:08.711Z,3.00
2019-02-28T02:27:35.500Z,3.20
2019-02-28T02:30:02.865Z,2.75
2019-02-28T02:32:29.292Z,3.45
2019-02-28T02:34:55.698Z,4.03
2019-02-28T02:37:22.234Z,3.20
2019-02-28T02:39:50.070Z,3.25
2019-02-28T02:42:17.687Z,3.40
2019-02-28T02:44:44.330Z,2.77
2019-02-28T02:47:11.289Z,3.87
2019-02-28T02:49:37.683Z,2.70
2019-02-28T02:52:04.576Z,3.10
2019-02-28T02:54:31.408Z,3.40
2019-02-28T02:56:58.236Z,3.15
2019-02-28T02:59:24.979Z,2.55
2019-02-28T03:01:56.217Z,3.83
2019-02-28T03:04:23.020Z,3.00
2019-02-28T03:06:48.613Z,2.05
2019-02-28T03:09:15.216Z,2.37
2019-02-28T03:11:41.520Z,2.90
2019-02-28T03:14:07.810Z,2.33
2019-02-28T03:16:34.646Z,2.27
2019-02-28T03:19:01.476Z,2.30
2019-02-28T03:21:27.885Z,2.92
2019-02-28T03:23:54.652Z,3.17
2019-02-28T03:26:21.208Z,3.27
2019-02-28T03:28:48.451Z,2.00
2019-02-28T03:31:15.805Z,2.83
2019-02-28T03:33:42.777Z,3.30
2019-02-28T03:36:09.602Z,2.00
2019-02-28T03:38:36.211Z,4.42
2019-02-28T03:41:02.881Z,3.20
2019-02-28T03:43:29.591Z,2.62
2019-02-28T03:45:56.550Z,2.67
2019-02-28T03:48:23.186Z,2.87
2019-02-28T03:50:49.815Z,2.62
2019-02-28T03:53:20.141Z,2.72
2019-02-28T03:55:45.139Z,2.05
2019-02-28T03:58:11.806Z,2.90
2019-02-28T04:00:38.436Z,2.85
2019-02-28T04:03:05.173Z,3.42
2019-02-28T04:05:31.607Z,2.08
2019-02-28T04:07:58.241Z,3.08
2019-02-28T04:10:24.554Z,2.10
2019-02-28T04:12:50.999Z,2.42
2019-02-28T04:15:19.703Z,3.02
2019-02-28T04:17:46.020Z,3.15
2019-02-28T04:20:12.360Z,3.02
2019-02-28T04:22:38.672Z,4.85
2019-02-28T04:25:07.064Z,2.80
2019-02-28T04:27:34.010Z,3.02
2019-02-28T04:30:06.622Z,2.50
2019-02-28T04:32:29.336Z,2.70
2019-02-28T04:34:56.087Z,2.33
2019-02-28T04:37:23.124Z,3.05
2019-02-28T04:39:49.762Z,3.05
2019-02-28T04:42:16.103Z,4.62
2019-02-28T04:44:42.415Z,3.98
2019-02-28T04:47:09.168Z,2.75
2019-02-28T04:49:35.583Z,2.77
2019-02-28T04:52:02.003Z,2.98
2019-02-28T04:54:28.778Z,2.37
2019-02-28T04:56:55.435Z,2.92
2019-02-28T04:59:21.956Z,3.65
2019-02-28T05:01:48.248Z,2.55
2019-02-28T05:04:15.122Z,2.90
2019-02-28T05:06:41.730Z,3.27
2019-02-28T05:09:10.658Z,2.70
2019-02-28T05:11:36.895Z,2.35
2019-02-28T05:14:03.205Z,4.15
2019-02-28T05:16:29.747Z,3.00
2019-02-28T05:18:58.197Z,2.90
2019-02-28T05:21:25.078Z,2.42
2019-02-28T05:23:51.374Z,1.85
2019-02-28T05:26:18.164Z,3.05
2019-02-28T05:28:44.820Z,2.77
2019-02-28T05:31:11.638Z,3.40
2019-02-28T05:33:38.393Z,2.35
2019-02-28T05:36:06.661Z,3.35
2019-02-28T05:38:33.297Z,4.60
2019-02-28T05:41:00.041Z,3.85
2019-02-28T05:43:26.340Z,4.78
2019-02-28T05:45:52.775Z,4.60
2019-02-28T05:48:19.559Z,3.25
2019-02-28T05:50:46.883Z,2.90
2019-02-28T05:53:14.768Z,2.77
2019-02-28T05:55:41.422Z,3.05
2019-02-28T05:58:07.825Z,2.72
2019-02-28T06:00:37.078Z,3.50
2019-02-28T06:03:03.162Z,3.10
2019-02-28T06:05:30.007Z,2.87
2019-02-28T06:07:56.349Z,2.75
2019-02-28T06:10:24.602Z,2.50
2019-02-28T06:12:51.455Z,3.08
2019-02-28T06:15:18.408Z,3.17
2019-02-28T06:17:44.855Z,3.70
2019-02-28T06:20:16.418Z,3.42
2019-02-28T06:22:40.984Z,2.98
2019-02-28T06:25:09.509Z,3.60
2019-02-28T06:27:41.544Z,2.60
2019-02-28T06:30:10.441Z,2.70
2019-02-28T06:32:37.170Z,4.10
2019-02-28T06:35:05.647Z,2.27
2019-02-28T06:37:32.285Z,2.65
2019-02-28T06:40:01.689Z,3.70
2019-02-28T06:42:28.086Z,3.30
2019-02-28T06:44:54.763Z,4.47
2019-02-28T06:47:22.117Z,3.60
2019-02-28T06:49:48.563Z,3.70
2019-02-28T06:52:15.304Z,7.22
2019-02-28T06:54:42.042Z,3.27
2019-02-28T06:57:08.990Z,4.10
2019-02-28T06:59:36.205Z,6.80
2019-02-28T07:02:04.022Z,5.42
2019-02-28T07:04:30.749Z,4.65
2019-02-28T07:10:26.499Z,3.98
2019-02-28T07:12:53.238Z,3.65
2019-02-28T07:18:52.826Z,4.40
2019-02-28T07:21:16.533Z,3.27
2019-02-28T07:23:43.079Z,2.90
2019-02-28T07:29:50.049Z,3.08
2019-02-28T07:32:16.559Z,3.77
2019-02-28T07:34:42.951Z,3.83
2019-02-28T07:37:29.215Z,5.37
2019-02-28T07:39:55.523Z,9.10
2019-02-28T07:42:23.650Z,8.20
2019-02-28T07:44:50.085Z,8.78
2019-02-28T07:47:17.529Z,10.53
2019-02-28T07:49:45.106Z,7.87
2019-02-28T07:52:11.941Z,7.22
2019-02-28T07:54:38.889Z,6.70
2019-02-28T07:57:05.398Z,5.12
2019-02-28T07:59:32.167Z,7.12
2019-02-28T08:01:59.950Z,3.87
2019-02-28T08:04:27.055Z,5.25
2019-02-28T08:06:54.991Z,5.00
2019-02-28T08:09:24.242Z,4.50
2019-02-28T08:11:51.667Z,4.92
2019-02-28T08:14:19.276Z,4.40
2019-02-28T08:16:45.678Z,4.95
2019-02-28T08:19:12.082Z,5.05
2019-02-28T08:21:43.927Z,4.92
2019-02-28T08:24:06.847Z,1.85
2019-02-28T08:26:33.250Z,4.70
2019-02-28T08:28:59.805Z,4.83
2019-02-28T08:31:28.399Z,2.72
2019-02-28T08:33:55.250Z,4.00
2019-02-28T08:36:21.698Z,6.00
2019-02-28T08:38:48.165Z,2.98
2019-02-28T08:41:14.781Z,5.00
2019-02-28T08:43:41.186Z,3.98
2019-02-28T08:46:11.117Z,3.52
2019-02-28T08:48:36.202Z,3.80
2019-02-28T08:51:03.055Z,3.75
2019-02-28T08:53:29.790Z,2.77
2019-02-28T08:55:56.093Z,6.60
2019-02-28T08:58:22.510Z,3.30
2019-02-28T09:00:49.401Z,4.05
2019-02-28T09:03:16.141Z,2.72
2019-02-28T09:05:42.467Z,4.92
2019-02-28T09:08:09.003Z,4.85
2019-02-28T09:10:37.406Z,5.60
2019-02-28T09:13:07.728Z,3.50
2019-02-28T09:15:32.308Z,5.20
2019-02-28T09:17:59.713Z,3.45
2019-02-28T09:20:26.710Z,3.00
2019-02-28T09:22:53.056Z,5.08
2019-02-28T09:25:23.777Z,4.03
2019-02-28T09:27:50.421Z,2.98
2019-02-28T09:30:29.956Z,2.08
2019-02-28T09:32:57.792Z,3.25
2019-02-28T09:35:25.704Z,2.33
2019-02-28T09:37:52.059Z,3.85
2019-02-28T09:40:18.665Z,2.77
2019-02-28T09:42:47.970Z,1.75
2019-02-28T09:45:16.517Z,4.62
2019-02-28T09:47:43.194Z,2.83
2019-02-28T09:50:15.780Z,2.98
2019-02-28T09:52:42.623Z,2.60
2019-02-28T09:55:10.649Z,3.05
2019-02-28T09:57:36.954Z,3.15
2019-02-28T10:00:15.847Z,3.08
2019-02-28T10:02:43.998Z,3.62
2019-02-28T10:05:11.881Z,2.85
2019-02-28T10:07:38.622Z,2.87
2019-02-28T10:10:21.003Z,1.90
2019-02-28T10:12:46.550Z,3.25
2019-02-28T10:15:19.125Z,3.05
2019-02-28T10:17:45.541Z,2.92
2019-02-28T10:20:18.248Z,2.25
2019-02-28T10:22:47.343Z,3.15
2019-02-28T10:25:13.445Z,2.12
2019-02-28T10:27:40.405Z,2.15
2019-02-28T10:30:15.536Z,4.62
2019-02-28T10:32:40.336Z,4.15
2019-02-28T10:35:08.007Z,1.40
2019-02-28T10:37:35.688Z,3.80
2019-02-28T10:40:08.758Z,1.67
2019-02-28T10:42:37.093Z,2.55
2019-02-28T10:45:07.187Z,3.33
2019-02-28T10:47:33.463Z,2.00
2019-02-28T10:50:00.276Z,2.65
2019-02-28T10:52:30.469Z,1.70
2019-02-28T10:54:55.650Z,1.40
2019-02-28T10:57:21.987Z,2.58
2019-02-28T10:59:48.386Z,2.08
2019-02-28T11:02:18.969Z,2.62
2019-02-28T11:04:44.041Z,2.67
2019-02-28T11:07:10.992Z,2.12
2019-02-28T11:09:37.393Z,2.17
2019-02-28T11:12:04.064Z,1.60
2019-02-28T11:14:30.817Z,2.47
2019-02-28T11:16:59.540Z,2.10
2019-02-28T11:19:26.136Z,2.08
2019-02-28T11:21:52.459Z,1.75
2019-02-28T11:24:20.591Z,1.80
2019-02-28T11:26:47.096Z,1.47
2019-02-28T11:29:13.710Z,1.62
2019-02-28T11:31:40.559Z,1.40
2019-02-28T11:34:07.016Z,1.45
2019-02-28T11:36:33.995Z,1.42
2019-02-28T11:39:02.010Z,1.77
2019-02-28T11:41:28.656Z,1.45
2019-02-28T11:43:54.961Z,0.95
2019-02-28T11:46:21.376Z,1.32
2019-02-28T11:48:50.971Z,1.50
2019-02-28T11:51:17.656Z,2.15
2019-02-28T11:53:44.982Z,1.20
2019-02-28T11:56:13.002Z,1.77
2019-02-28T11:58:39.647Z,1.30
2019-02-28T12:01:10.022Z,3.33
2019-02-28T12:03:35.479Z,1.10
2019-02-28T12:06:03.610Z,1.90
2019-02-28T12:08:30.282Z,2.02
2019-02-28T12:10:58.322Z,2.10
2019-02-28T12:13:25.206Z,1.70
2019-02-28T12:15:52.147Z,2.35
2019-02-28T12:18:19.101Z,1.57
2019-02-28T12:20:45.867Z,2.30
2019-02-28T12:23:12.479Z,1.47
2019-02-28T12:25:39.613Z,1.47
2019-02-28T12:28:07.385Z,1.65
2019-02-28T12:30:34.748Z,1.70
2019-02-28T12:33:01.375Z,1.75
2019-02-28T12:35:28.121Z,1.67
2019-02-28T12:37:55.021Z,1.82
2019-02-28T12:40:25.206Z,1.50
2019-02-28T12:42:51.513Z,1.45
2019-02-28T12:45:30.335Z,2.37
2019-02-28T12:47:57.087Z,1.55
2019-02-28T12:50:23.509Z,1.40
2019-02-28T12:52:50.194Z,1.75
2019-02-28T12:55:18.115Z,2.35
2019-02-28T12:57:44.767Z,1.42
2019-02-28T13:00:23.454Z,2.00
2019-02-28T13:02:48.647Z,2.42
2019-02-28T13:05:15.983Z,2.20
2019-02-28T13:07:42.589Z,1.80
2019-02-28T13:10:18.048Z,2.05
2019-02-28T13:12:48.911Z,1.70
2019-02-28T13:15:15.305Z,2.98
2019-02-28T13:17:41.778Z,1.30
2019-02-28T13:20:14.215Z,1.62
2019-02-28T13:22:41.056Z,2.20
2019-02-28T13:25:11.810Z,1.67
2019-02-28T13:27:41.451Z,2.27
2019-02-28T13:30:14.221Z,1.70
2019-02-28T13:32:40.964Z,1.72
2019-02-28T13:35:10.931Z,1.98
2019-02-28T13:37:37.455Z,1.82
2019-02-28T13:40:09.497Z,2.52
2019-02-28T13:42:40.187Z,1.50
2019-02-28T13:45:13.592Z,2.42
2019-02-28T13:47:35.939Z,2.25
2019-02-28T13:50:05.417Z,2.27
2019-02-28T13:52:32.363Z,1.72
2019-02-28T13:54:59.318Z,1.50
2019-02-28T13:57:26.051Z,1.82
2019-02-28T13:59:52.789Z,3.47
2019-02-28T14:02:19.631Z,2.58
2019-02-28T14:04:45.950Z,2.30
2019-02-28T14:07:12.682Z,2.42
2019-02-28T14:09:39.103Z,2.25
2019-02-28T14:12:05.889Z,1.82
2019-02-28T14:14:32.631Z,2.00
2019-02-28T14:17:01.324Z,2.20
2019-02-28T14:19:27.582Z,1.60
2019-02-28T14:21:54.188Z,1.80
2019-02-28T14:24:20.481Z,2.25
2019-02-28T14:26:49.593Z,1.75
2019-02-28T14:29:15.640Z,1.07
2019-02-28T14:31:42.263Z,1.90
2019-02-28T14:34:09.006Z,2.10
2019-02-28T14:36:35.756Z,2.35
2019-02-28T14:39:04.662Z,1.50
2019-02-28T14:41:31.943Z,1.42
2019-02-28T14:43:58.947Z,2.30
2019-02-28T14:46:25.611Z,1.37
2019-02-28T14:48:51.928Z,1.15
2019-02-28T14:51:18.243Z,1.40
2019-02-28T14:53:45.437Z,2.08
2019-02-28T14:56:12.675Z,2.42
2019-02-28T14:58:38.962Z,1.35
2019-02-28T15:01:05.363Z,1.10
2019-02-28T15:03:31.914Z,1.35
2019-02-28T15:05:58.321Z,1.37
2019-02-28T15:08:26.989Z,1.70
2019-02-28T15:10:53.291Z,1.85
2019-02-28T15:13:19.771Z,3.08
2019-02-28T15:15:49.442Z,2.10
2019-02-28T15:18:15.064Z,2.30
2019-02-28T15:20:41.807Z,3.50
2019-02-28T15:23:08.652Z,2.55
2019-02-28T15:25:35.001Z,2.02
2019-02-28T15:28:01.402Z,2.35
2019-02-28T15:30:33.773Z,1.60
2019-02-28T15:32:59.913Z,2.42
2019-02-28T15:35:26.636Z,1.80
2019-02-28T15:37:53.392Z,3.42
2019-02-28T15:40:25.917Z,2.72
2019-02-28T15:42:52.611Z,3.33
2019-02-28T15:45:18.920Z,2.60
2019-02-28T15:47:45.375Z,2.37
2019-02-28T15:50:16.401Z,3.22
2019-02-28T15:52:43.406Z,1.82
2019-02-28T15:55:15.628Z,2.40
2019-02-28T15:57:42.028Z,2.15
2019-02-28T16:00:15.467Z,1.77
2019-02-28T16:02:42.948Z,1.77
2019-02-28T16:05:10.000Z,1.27
2019-02-28T16:07:36.613Z,1.07
2019-02-28T16:10:05.067Z,1.70
2019-02-28T16:12:31.366Z,2.55
2019-02-28T16:14:58.163Z,1.52
2019-02-28T16:17:24.664Z,3.30
2019-02-28T16:19:53.256Z,1.40
2019-02-28T16:22:19.871Z,2.40
2019-02-28T16:24:46.873Z,1.52
2019-02-28T16:27:13.482Z,1.55
2019-02-28T16:29:40.148Z,2.02
2019-02-28T16:32:06.594Z,1.50
2019-02-28T16:34:33.434Z,1.60
2019-02-28T16:37:00.999Z,1.90
2019-02-28T16:39:28.572Z,2.10
2019-02-28T16:41:54.987Z,1.55
2019-02-28T16:44:21.741Z,1.52
2019-02-28T16:46:50.117Z,1.90
2019-02-28T16:49:16.478Z,1.47
2019-02-28T16:51:42.774Z,1.98
2019-02-28T16:54:09.225Z,2.55
2019-02-28T16:56:37.574Z,1.85
2019-02-28T16:59:04.257Z,2.87
2019-02-28T17:01:31.174Z,2.55
2019-02-28T17:03:57.916Z,1.40
2019-02-28T17:06:24.646Z,2.33
2019-02-28T17:08:54.547Z,4.17
2019-02-28T17:11:21.827Z,3.25
2019-02-28T17:13:50.030Z,1.27
2019-02-28T17:16:18.889Z,1.47
2019-02-28T17:18:45.301Z,2.95
2019-02-28T17:21:16.821Z,1.30
2019-02-28T17:23:40.775Z,2.80
2019-02-28T17:26:07.906Z,3.12
2019-02-28T17:28:42.026Z,3.00
2019-02-28T17:31:26.784Z,3.17
2019-02-28T17:33:54.625Z,2.42
2019-02-28T17:36:25.771Z,3.45
2019-02-28T17:38:52.182Z,2.77
2019-02-28T17:41:18.621Z,2.72
2019-02-28T17:44:08.442Z,2.95
2019-02-28T17:46:35.387Z,2.27
2019-02-28T17:49:05.813Z,2.90
2019-02-28T17:51:36.444Z,2.30
2019-02-28T17:54:31.043Z,1.65
2019-02-28T17:57:07.816Z,1.80
2019-02-28T17:59:39.032Z,1.32
2019-02-28T18:02:27.054Z,1.60
2019-02-28T18:05:30.120Z,1.90
2019-02-28T18:08:18.040Z,1.57
2019-02-28T18:11:07.914Z,2.50
2019-02-28T18:13:52.143Z,3.40
2019-02-28T18:19:21.578Z,1.45
2019-02-28T18:22:08.623Z,1.30
2019-02-28T18:25:13.992Z,1.60
2019-02-28T18:27:59.885Z,2.22
2019-02-28T18:31:04.217Z,1.25
2019-02-28T18:33:33.957Z,1.22
2019-02-28T18:36:01.032Z,1.35
2019-02-28T18:38:27.785Z,1.70
2019-02-28T18:40:54.626Z,2.98
2019-02-28T18:43:23.974Z,2.27
2019-02-28T18:45:49.547Z,2.42
2019-02-28T18:48:17.954Z,2.17
2019-02-28T18:50:44.558Z,3.00
2019-02-28T18:53:11.004Z,2.37
2019-02-28T18:55:38.042Z,3.67
2019-02-28T18:58:04.560Z,1.67
2019-02-28T19:00:31.447Z,1.07
2019-02-28T19:02:57.755Z,1.45
2019-02-28T19:05:25.881Z,2.17
2019-02-28T19:07:58.210Z,1.52
2019-02-28T19:10:24.532Z,2.47
2019-02-28T19:12:51.124Z,1.50
2019-02-28T19:15:38.000Z,2.02
2019-02-28T19:18:04.721Z,1.85
2019-02-28T19:20:31.347Z,1.35
2019-02-28T19:22:58.344Z,2.40
2019-02-28T19:25:24.806Z,1.10
2019-02-28T19:27:51.344Z,2.27
2019-02-28T19:30:18.018Z,3.05
2019-02-28T19:32:44.541Z,2.12
2019-02-28T19:35:10.947Z,1.85
2019-02-28T19:37:37.549Z,2.70
2019-02-28T19:40:09.128Z,1.52
2019-02-28T19:42:35.943Z,1.72
2019-02-28T19:45:08.624Z,1.62
2019-02-28T19:47:35.340Z,0.90
2019-02-28T19:50:02.090Z,1.65
2019-02-28T19:52:28.829Z,1.30
2019-02-28T19:54:55.342Z,1.65
2019-02-28T19:57:22.106Z,0.98
2019-02-28T19:59:49.061Z,1.80
2019-02-28T20:02:15.903Z,1.20
2019-02-28T20:04:42.637Z,1.30
2019-02-28T20:07:09.281Z,1.12
2019-02-28T20:09:35.687Z,1.57
2019-02-28T20:12:02.497Z,1.50
2019-02-28T20:14:28.918Z,2.12
2019-02-28T20:16:55.426Z,1.98
2019-02-28T20:19:22.366Z,1.32
2019-02-28T20:21:49.710Z,1.40
2019-02-28T20:24:16.097Z,1.75
2019-02-28T20:26:42.818Z,1.40
2019-02-28T20:29:10.052Z,1.32
2019-02-28T20:31:36.455Z,1.50
2019-02-28T20:34:02.744Z,4.12
2019-02-28T20:36:29.686Z,1.17
2019-02-28T20:38:56.103Z,1.60
2019-02-28T20:41:22.834Z,1.07
2019-02-28T20:43:49.782Z,2.27
2019-02-28T20:46:20.521Z,1.70
2019-02-28T20:48:47.254Z,2.08
2019-02-28T20:51:13.897Z,1.55
2019-02-28T20:53:40.538Z,2.00
2019-02-28T20:56:07.072Z,1.05
2019-02-28T20:58:34.064Z,1.27
2019-02-28T21:01:00.853Z,1.50
2019-02-28T21:03:27.811Z,1.40
2019-02-28T21:05:54.345Z,1.90
2019-02-28T21:08:20.976Z,1.50
2019-02-28T21:10:47.928Z,1.15
2019-02-28T21:13:14.769Z,1.57
2019-02-28T21:15:41.400Z,1.55
2019-02-28T21:18:08.269Z,1.25
2019-02-28T21:20:34.702Z,2.27
2019-02-28T21:23:21.365Z,1.70
2019-02-28T21:25:48.142Z,1.17
2019-02-28T21:28:14.982Z,2.35
2019-02-28T21:30:41.829Z,2.00
2019-02-28T21:33:08.570Z,2.30
2019-02-28T21:35:35.517Z,1.95
2019-02-28T21:38:02.362Z,1.60
2019-02-28T21:40:29.129Z,1.75
2019-02-28T21:42:55.522Z,1.42
2019-02-28T21:45:26.862Z,1.98
2019-02-28T21:47:53.265Z,2.30
2019-02-28T21:50:19.961Z,2.98
2019-02-28T21:52:46.395Z,3.42
2019-02-28T21:55:14.320Z,2.08
2019-02-28T21:57:40.639Z,3.85
2019-02-28T22:00:16.553Z,3.25
2019-02-28T22:02:43.289Z,2.10
2019-02-28T22:05:11.393Z,2.22
2019-02-28T22:07:38.408Z,3.55
2019-02-28T22:10:11.091Z,2.33
2019-02-28T22:12:37.832Z,1.42
2019-02-28T22:15:09.482Z,2.98
2019-02-28T22:17:37.964Z,2.37
2019-02-28T22:20:06.351Z,2.08
2019-02-28T22:22:33.199Z,3.12
2019-02-28T22:25:00.972Z,1.30
2019-02-28T22:27:27.580Z,1.45
2019-02-28T22:29:54.019Z,1.72
2019-02-28T22:32:24.612Z,1.90
2019-02-28T22:34:52.636Z,2.10
2019-02-28T22:37:19.175Z,1.85
2019-02-28T22:39:45.599Z,1.12
2019-02-28T22:42:21.716Z,2.10
2019-02-28T22:44:40.618Z,2.02
2019-02-28T22:47:07.468Z,1.72
2019-02-28T22:49:34.789Z,1.77
2019-02-28T22:52:01.236Z,1.77
2019-02-28T22:54:27.645Z,1.22
2019-02-28T22:56:54.532Z,1.80
2019-02-28T22:59:20.970Z,2.17
2019-02-28T23:01:47.717Z,2.45
2019-02-28T23:04:14.014Z,3.10
2019-02-28T23:06:40.705Z,2.90
2019-02-28T23:09:07.095Z,3.12
2019-02-28T23:11:33.855Z,1.50
2019-02-28T23:14:00.308Z,1.72
2019-02-28T23:16:27.148Z,1.30
2019-02-28T23:18:53.549Z,2.12
2019-02-28T23:21:21.112Z,2.60
2019-02-28T23:23:47.557Z,1.85
2019-02-28T23:26:14.514Z,0.93
2019-02-28T23:28:48.217Z,0.95
2019-02-28T23:31:47.360Z,0.93
2019-02-28T23:34:23.550Z,1.62
2019-02-28T23:36:50.522Z,1.47
2019-02-28T23:39:16.939Z,1.12
2019-02-28T23:41:43.377Z,1.30
2019-02-28T23:44:09.783Z,1.45
2019-02-28T23:46:36.571Z,0.60
2019-02-28T23:49:03.413Z,0.88
2019-02-28T23:51:29.817Z,0.78
2019-02-28T23:53:56.591Z,1.25
2019-02-28T23:56:23.641Z,0.70
2019-02-28T23:58:49.991Z,0.60
